Time;durP1;ratioP1;P1;durP2;ratioP2;P2;SDS_P1;SDS_P2;PMS_P1;PMS_P2;Temp;Humidity;BMP_temperature;BMP_pressure;BME280_temperature;BME280_humidity;BME280_pressure;Samples;Min_cycle;Max_cycle;Signal;HPM_P1;HPM_P2
2021/07/12 00:00:21;;;;;;;9.57;7.15;;;;;;;20.02;70.62;101181.28;4995628;28;20030;-79
2021/07/12 00:02:47;;;;;;;10.88;6.22;;;;;;;19.96;70.86;101178.53;4995550;28;20390;-78
2021/07/12 00:05:13;;;;;;;7.65;6.00;;;;;;;20.03;70.19;101183.03;4995645;28;20019;-78
2021/07/12 00:07:40;;;;;;;8.45;6.22;;;;;;;19.99;70.31;101176.00;4995619;28;20108;-78
2021/07/12 00:10:08;;;;;;;9.40;5.90;;;;;;;20.06;70.24;101180.47;4995632;28;20109;-78
2021/07/12 00:12:33;;;;;;;7.50;5.97;;;;;;;20.03;70.07;101177.81;4995351;28;20030;-78
2021/07/12 00:14:59;;;;;;;9.65;6.22;;;;;;;19.97;70.25;101177.69;4995199;28;20030;-77
2021/07/12 00:17:25;;;;;;;8.60;6.57;;;;;;;19.96;70.24;101183.78;4995515;28;20038;-78
2021/07/12 00:19:50;;;;;;;11.45;6.15;;;;;;;19.98;69.67;101180.31;4995356;28;20030;-79
2021/07/12 00:22:16;;;;;;;8.25;6.53;;;;;;;19.99;69.80;101181.22;4978978;28;20092;-79
2021/07/12 00:24:41;;;;;;;8.07;6.55;;;;;;;20.00;69.64;101182.97;4994901;28;20042;-79
2021/07/12 00:27:07;;;;;;;7.57;5.90;;;;;;;19.93;69.96;101175.88;4995176;28;20023;-79
2021/07/12 00:29:33;;;;;;;9.07;5.90;;;;;;;19.91;69.68;101172.34;4995127;28;20531;-79
2021/07/12 00:31:58;;;;;;;10.75;6.72;;;;;;;19.92;69.76;101174.09;4994322;28;20475;-79
2021/07/12 00:34:24;;;;;;;8.80;6.35;;;;;;;19.84;69.92;101176.53;4978739;28;20404;-79
2021/07/12 00:36:49;;;;;;;9.40;6.15;;;;;;;19.87;70.03;101175.72;4996160;28;20464;-79
2021/07/12 00:39:15;;;;;;;9.40;5.80;;;;;;;19.85;70.14;101173.97;4996126;28;20042;-79
2021/07/12 00:41:40;;;;;;;9.65;6.55;;;;;;;19.84;69.96;101179.16;4994804;28;20109;-78
2021/07/12 00:44:06;;;;;;;7.25;6.38;;;;;;;19.82;70.38;101173.91;4994721;28;20033;-78
2021/07/12 00:46:32;;;;;;;7.13;6.25;;;;;;;19.81;70.09;101172.13;4996249;28;20033;-78
2021/07/12 00:48:58;;;;;;;9.85;5.88;;;;;;;19.75;70.13;101169.41;4994767;28;20030;-78
2021/07/12 00:51:24;;;;;;;7.85;6.03;;;;;;;19.75;70.24;101177.25;4994758;28;20038;-78
2021/07/12 00:53:50;;;;;;;10.15;5.95;;;;;;;19.73;70.14;101168.50;4994604;28;20035;-79
2021/07/12 00:56:16;;;;;;;7.50;6.10;;;;;;;19.70;70.06;101163.22;4995905;28;20092;-79
2021/07/12 00:58:42;;;;;;;10.80;6.35;;;;;;;19.68;70.33;101159.69;4994671;28;20026;-78
2021/07/12 01:01:08;;;;;;;7.40;6.05;;;;;;;19.68;70.43;101170.13;4994596;28;20033;-79
2021/07/12 01:03:35;;;;;;;7.28;6.50;;;;;;;19.63;70.11;101167.41;4994757;28;20117;-78
2021/07/12 01:06:01;;;;;;;17.70;6.20;;;;;;;19.67;70.27;101163.16;4994435;28;20026;-79
2021/07/12 01:08:27;;;;;;;9.57;6.35;;;;;;;19.64;70.29;101163.09;4995527;28;20093;-79
2021/07/12 01:11:09;;;;;;;10.23;6.50;;;;;;;19.62;70.36;101170.03;4978098;28;20026;-79
2021/07/12 01:13:53;;;;;;;8.32;6.43;;;;;;;19.62;70.29;101162.19;4978046;28;20030;-79
2021/07/12 01:16:24;;;;;;;14.32;6.40;;;;;;;19.61;70.45;101168.22;4994165;28;20440;-79
2021/07/12 01:19:18;;;;;;;9.73;6.18;;;;;;;19.59;70.59;101164.69;4995389;28;20030;-79
2021/07/12 01:21:58;;;;;;;8.55;5.45;;;;;;;19.56;70.42;101161.19;4986740;28;20542;-79
2021/07/12 01:25:01;;;;;;;11.77;6.93;;;;;;;19.55;70.24;101154.19;5008167;28;20049;-78
2021/07/12 01:27:51;;;;;;;10.18;7.00;;;;;;;19.52;70.47;101155.88;5014814;28;20036;-78
2021/07/12 01:30:22;;;;;;;8.98;6.93;;;;;;;19.50;70.58;101154.97;4997173;28;20479;-78
2021/07/12 01:33:09;;;;;;;9.77;5.88;;;;;;;19.48;70.57;101160.13;4997187;28;20032;-78
2021/07/12 01:35:48;;;;;;;11.93;6.35;;;;;;;19.45;70.71;101157.47;5014888;28;20030;-78
2021/07/12 01:38:35;;;;;;;8.95;6.68;;;;;;;19.45;70.64;101147.00;4997226;28;20108;-78
2021/07/12 01:41:05;;;;;;;8.75;6.90;;;;;;;19.41;70.75;101146.09;4997096;28;20125;-79
2021/07/12 01:43:44;;;;;;;12.35;6.78;;;;;;;19.41;70.70;101150.41;4996360;28;20108;-79
2021/07/12 01:46:33;;;;;;;8.17;6.73;;;;;;;19.39;70.69;101146.88;4997140;28;20105;-79
2021/07/12 01:49:13;;;;;;;8.60;6.18;;;;;;;19.35;70.93;101145.97;5013256;28;20080;-78
2021/07/12 01:51:50;;;;;;;8.50;6.32;;;;;;;19.36;70.69;101146.81;4996735;28;20021;-78
2021/07/12 01:54:29;;;;;;;11.20;6.72;;;;;;;19.36;70.77;101146.81;4996671;28;20128;-78
2021/07/12 01:56:55;;;;;;;;;;;;;;;19.34;70.94;101148.53;4997232;28;20083;-78
2021/07/12 01:59:36;;;;;;;7.18;6.20;;;;;;;19.27;71.01;101143.16;4996729;28;20347;-79
2021/07/12 02:02:04;;;;;;;9.10;5.93;;;;;;;19.25;70.85;101137.03;4996180;28;20021;-79
2021/07/12 02:04:31;;;;;;;10.38;7.03;;;;;;;19.21;71.04;101132.59;4980298;28;20133;-78
2021/07/12 02:06:57;;;;;;;9.25;6.63;;;;;;;19.19;71.37;101134.28;4996564;28;20419;-80
2021/07/12 02:09:24;;;;;;;9.10;6.90;;;;;;;19.16;71.20;101134.22;4996703;28;20105;-79
2021/07/12 02:11:50;;;;;;;9.32;6.28;;;;;;;19.13;71.37;101134.16;4996383;28;20029;-80
2021/07/12 02:14:17;;;;;;;7.85;6.82;;;;;;;19.11;71.19;101130.63;4980100;28;20087;-79
2021/07/12 02:16:43;;;;;;;8.75;6.82;;;;;;;19.05;71.44;101125.28;4996381;28;20104;-80
2021/07/12 02:19:10;;;;;;;11.30;6.78;;;;;;;19.06;71.45;101124.44;5012680;28;20057;-78
2021/07/12 02:21:36;;;;;;;10.35;6.72;;;;;;;19.05;71.31;101120.06;4996265;28;20123;-82
2021/07/12 02:24:03;;;;;;;10.60;6.35;;;;;;;19.04;71.06;101113.06;4992918;28;20089;-80
2021/07/12 02:26:29;;;;;;;9.63;7.20;;;;;;;19.03;71.47;101116.53;4992848;28;20026;-77
2021/07/12 02:29:01;;;;;;;8.32;6.45;;;;;;;19.05;71.05;101117.44;4992899;28;20041;-77
2021/07/12 02:31:28;;;;;;;9.43;6.70;;;;;;;19.02;71.17;101112.16;4992328;28;20097;-77
2021/07/12 02:33:54;;;;;;;8.52;6.45;;;;;;;19.00;70.99;101112.13;4992349;28;20029;-80
2021/07/12 02:36:20;;;;;;;11.65;6.60;;;;;;;18.98;71.32;101113.81;4992525;28;20023;-79
2021/07/12 02:38:46;;;;;;;10.98;6.57;;;;;;;18.96;71.33;101105.94;4992838;28;20034;-81
2021/07/12 02:41:13;;;;;;;11.60;7.18;;;;;;;18.93;71.52;101116.31;4992699;28;20109;-82
2021/07/12 02:43:39;;;;;;;8.65;6.63;;;;;;;18.93;71.45;101100.63;4992333;28;20448;-82
2021/07/12 02:46:06;;;;;;;8.38;6.75;;;;;;;18.91;71.47;101107.56;4992292;28;20085;-84
2021/07/12 02:48:32;;;;;;;8.85;6.65;;;;;;;18.86;71.55;101101.34;4992314;28;20026;-82
2021/07/12 02:51:00;;;;;;;9.35;6.70;;;;;;;18.85;71.21;101094.38;4993078;28;20100;-83
2021/07/12 02:53:32;;;;;;;11.75;6.95;;;;;;;18.84;71.67;101097.84;4991841;28;20050;-83
2021/07/12 02:55:58;;;;;;;12.32;7.40;;;;;;;18.82;71.36;101096.91;5008489;28;20018;-86
2021/07/12 02:58:25;;;;;;;8.20;6.60;;;;;;;18.80;71.39;101103.81;4993710;28;20033;-85
2021/07/12 03:00:51;;;;;;;10.95;6.68;;;;;;;18.78;71.55;101100.31;5013784;28;20027;-85
2021/07/12 03:03:16;;;;;;;11.10;6.82;;;;;;;18.80;71.58;101101.22;4983486;28;20030;-84
2021/07/12 03:05:42;;;;;;;9.38;6.85;;;;;;;18.76;71.47;101092.44;4993089;28;20030;-83
2021/07/12 03:08:12;;;;;;;8.00;6.30;;;;;;;18.75;71.30;101097.63;5008127;28;20413;-82
2021/07/12 03:10:39;;;;;;;;;;;;;;;18.74;71.27;101093.25;4993517;28;20030;-81
2021/07/12 03:13:05;;;;;;;12.55;7.03;;;;;;;18.72;71.36;101084.50;4991788;28;19913;-80
2021/07/12 03:15:42;;;;;;;10.45;6.97;;;;;;;18.68;71.66;101084.44;4975517;28;20037;-84
2021/07/12 03:18:24;;;;;;;10.20;7.63;;;;;;;18.59;71.68;101083.34;4991915;28;20450;-85
2021/07/12 03:20:50;;;;;;;16.15;7.25;;;;;;;18.58;71.76;101085.06;4973290;28;20395;-83
2021/07/12 03:23:16;;;;;;;12.80;6.97;;;;;;;18.59;71.74;101084.22;4991630;28;20049;-83
2021/07/12 03:25:46;;;;;;;9.65;7.10;;;;;;;18.57;71.39;101080.69;4991800;28;20030;-84
2021/07/12 03:28:12;;;;;;;9.85;6.97;;;;;;;18.54;71.76;101080.59;5017019;28;20018;-84
2021/07/12 03:30:38;;;;;;;9.95;7.00;;;;;;;18.53;71.51;101089.28;4991864;28;20101;-85
2021/07/12 03:33:06;;;;;;;13.38;7.20;;;;;;;18.51;71.77;101085.75;5008037;28;20026;-85
2021/07/12 03:35:41;;;;;;;12.40;7.10;;;;;;;18.49;71.64;101082.22;5007981;28;20027;-83
2021/07/12 03:38:07;;;;;;;9.70;7.40;;;;;;;18.48;71.70;101086.56;4988244;28;20082;-82
2021/07/12 03:40:33;;;;;;;12.75;7.75;;;;;;;18.46;71.63;101082.16;5007612;28;20038;-84
2021/07/12 03:42:58;;;;;;;9.95;7.43;;;;;;;18.46;71.56;101077.84;5007573;28;20389;-83
2021/07/12 03:45:24;;;;;;;11.82;7.38;;;;;;;18.46;71.38;101082.16;5007696;28;20022;-84
2021/07/12 03:47:50;;;;;;;12.10;8.27;;;;;;;18.47;71.57;101089.13;4992774;28;20018;-84
2021/07/12 03:50:17;;;;;;;9.57;7.07;;;;;;;18.46;71.69;101071.72;4991493;28;20355;-84
2021/07/12 03:52:48;;;;;;;10.38;7.28;;;;;;;18.47;71.34;101081.31;4991585;28;20030;-82
2021/07/12 03:55:17;;;;;;;9.15;7.38;;;;;;;18.46;71.69;101076.94;4992676;28;20539;-81
2021/07/12 03:57:44;;;;;;;11.65;7.30;;;;;;;18.45;71.58;101083.00;4991513;28;20484;-80
2021/07/12 04:00:16;;;;;;;12.00;7.18;;;;;;;18.44;71.52;101079.53;4991296;28;20492;-79
2021/07/12 04:02:42;;;;;;;13.05;7.05;;;;;;;18.43;71.48;101074.25;4992207;28;20014;-80
2021/07/12 04:05:09;;;;;;;12.18;7.28;;;;;;;18.44;71.38;101074.31;4991226;28;20409;-83
2021/07/12 04:07:34;;;;;;;14.40;7.20;;;;;;;18.43;71.47;101069.03;4996164;28;20038;-80
2021/07/12 04:10:00;;;;;;;10.32;7.28;;;;;;;18.42;71.60;101064.66;5011402;28;20085;-80
2021/07/12 04:12:26;;;;;;;11.40;7.10;;;;;;;18.44;71.48;101065.59;4995282;28;20026;-86
2021/07/12 04:14:54;;;;;;;12.98;7.25;;;;;;;18.42;71.39;101065.56;4988929;28;20118;-85
2021/07/12 04:17:20;;;;;;;10.00;7.13;;;;;;;18.43;71.70;101061.22;4996695;28;20097;-86
2021/07/12 04:19:47;;;;;;;10.75;6.82;;;;;;;18.42;71.53;101069.88;4995758;28;20034;-86
2021/07/12 04:22:12;;;;;;;10.30;6.85;;;;;;;18.42;71.76;101060.34;5028155;28;20042;-84
2021/07/12 04:24:39;;;;;;;8.05;6.70;;;;;;;18.45;71.65;101064.75;4995210;28;20046;-86
2021/07/12 04:27:04;;;;;;;9.50;7.40;;;;;;;18.46;72.10;101061.28;4996373;28;20030;-85
2021/07/12 04:29:30;;;;;;;10.98;7.20;;;;;;;18.48;71.54;101062.19;4995284;28;20503;-84
2021/07/12 04:31:56;;;;;;;9.48;7.38;;;;;;;18.47;71.69;101068.25;4994554;28;20360;-82
2021/07/12 04:34:23;;;;;;;12.55;6.72;;;;;;;18.45;72.09;101056.91;4995763;28;20018;-83
2021/07/12 04:36:48;;;;;;;8.80;6.68;;;;;;;18.46;72.08;101063.91;5011023;28;20097;-82
2021/07/12 04:39:14;;;;;;;10.73;7.00;;;;;;;18.47;72.05;101057.84;4996188;28;20104;-86
2021/07/12 04:41:40;;;;;;;10.55;6.80;;;;;;;18.49;72.07;101056.13;5011292;28;20022;-87
2021/07/12 04:44:05;;;;;;;8.45;6.82;;;;;;;18.50;72.15;101064.00;5011178;28;20026;-86
2021/07/12 04:46:31;;;;;;;9.52;6.47;;;;;;;18.54;71.83;101064.94;5010769;28;20487;-83
2021/07/12 04:48:57;;;;;;;11.48;6.50;;;;;;;18.59;71.87;101059.84;4994112;28;20057;-83
2021/07/12 04:51:22;;;;;;;11.77;6.93;;;;;;;18.58;71.99;101050.25;5010925;28;20109;-82
2021/07/12 04:53:48;;;;;;;11.77;7.00;;;;;;;18.57;72.01;101044.19;5010947;28;20089;-86
2021/07/12 04:56:14;;;;;;;15.30;6.93;;;;;;;18.56;72.36;101047.63;5011176;28;20084;-84
2021/07/12 04:58:47;;;;;;;9.95;6.85;;;;;;;18.55;72.33;101040.63;4995733;28;20026;-84
2021/07/12 05:01:13;;;;;;;8.60;6.85;;;;;;;18.58;72.30;101047.66;4995863;28;20105;-83
2021/07/12 05:03:41;;;;;;;12.77;6.50;;;;;;;18.65;72.08;101042.63;4994410;28;20085;-83
2021/07/12 05:06:06;;;;;;;13.50;6.88;;;;;;;18.61;72.48;101046.00;4994492;28;20093;-83
2021/07/12 05:08:31;;;;;;;8.75;6.38;;;;;;;18.69;72.13;101049.69;5027161;28;20034;-83
2021/07/12 05:10:57;;;;;;;9.93;6.20;;;;;;;18.64;72.49;101051.31;4994341;28;20026;-82
2021/07/12 05:13:22;;;;;;;12.15;7.03;;;;;;;18.67;72.28;101045.25;5010648;28;20037;-82
2021/07/12 05:15:48;;;;;;;11.10;6.63;;;;;;;18.71;71.98;101056.66;5010625;28;20045;-83
2021/07/12 05:18:14;;;;;;;7.45;5.97;;;;;;;18.75;72.52;101058.47;4993997;28;20101;-82
2021/07/12 05:20:39;;;;;;;8.05;6.18;;;;;;;18.71;72.24;101061.88;5010581;28;20030;-82
2021/07/12 05:23:05;;;;;;;16.67;6.53;;;;;;;18.75;72.76;101058.47;5012524;28;20471;-83
2021/07/12 05:25:30;;;;;;;9.68;6.20;;;;;;;18.82;72.20;101055.16;5013643;28;20034;-82
2021/07/12 05:27:56;;;;;;;12.55;6.93;;;;;;;18.91;72.08;101065.78;4997204;28;20030;-83
2021/07/12 05:30:22;;;;;;;10.82;6.68;;;;;;;18.90;72.02;101074.47;5013655;28;20022;-82
2021/07/12 05:32:47;;;;;;;12.82;6.95;;;;;;;18.90;72.13;101061.44;5013802;28;20416;-82
2021/07/12 05:35:13;;;;;;;9.98;6.70;;;;;;;18.92;72.27;101059.72;5030060;28;20057;-84
2021/07/12 05:37:39;;;;;;;10.48;6.60;;;;;;;18.87;72.76;101066.56;5030000;28;20022;-85
2021/07/12 05:40:06;;;;;;;9.43;6.65;;;;;;;18.84;72.90;101053.47;5013432;28;20394;-83
2021/07/12 05:42:32;;;;;;;7.80;5.88;;;;;;;18.94;72.76;101060.66;5013388;28;20037;-84
2021/07/12 05:44:58;;;;;;;9.45;6.20;;;;;;;19.02;72.12;101057.34;5012529;28;20084;-81
2021/07/12 05:47:23;;;;;;;7.40;6.20;;;;;;;19.00;72.90;101064.25;5012805;28;20038;-82
2021/07/12 05:49:49;;;;;;;11.95;6.72;;;;;;;19.03;72.48;101064.31;5013931;28;20104;-72
2021/07/12 05:52:15;;;;;;;8.80;6.82;;;;;;;19.13;72.40;101061.06;4996455;28;20024;-71
2021/07/12 05:54:40;;;;;;;9.27;6.82;;;;;;;19.20;72.43;101057.72;5013812;28;20030;-71
2021/07/12 05:57:06;;;;;;;11.32;6.60;;;;;;;19.24;72.53;101064.75;5013787;28;20017;-71
2021/07/12 05:59:32;;;;;;;7.70;6.00;;;;;;;19.25;72.46;101061.31;4996324;28;20033;-71
2021/07/12 06:01:58;;;;;;;12.25;6.10;;;;;;;19.39;72.82;101065.91;5013748;28;20459;-71
2021/07/12 06:04:24;;;;;;;10.13;6.22;;;;;;;19.43;72.41;101059.91;5012439;28;20022;-71
2021/07/12 06:06:50;;;;;;;9.57;6.95;;;;;;;19.51;71.96;101062.69;4993738;28;20486;-85
2021/07/12 06:09:16;;;;;;;10.20;6.50;;;;;;;19.54;72.32;101053.16;5013683;28;20029;-83
2021/07/12 06:11:42;;;;;;;9.48;6.45;;;;;;;19.60;72.27;101061.94;5012428;28;20025;-84
2021/07/12 06:14:08;;;;;;;14.35;6.63;;;;;;;19.67;71.83;101050.78;4995411;28;20045;-83
2021/07/12 06:16:34;;;;;;;12.60;6.20;;;;;;;19.71;71.75;101055.22;5012647;28;20026;-82
2021/07/12 06:19:03;;;;;;;10.57;6.43;;;;;;;19.82;71.26;101048.44;4995343;28;20164;-82
2021/07/12 06:21:29;;;;;;;8.70;6.50;;;;;;;19.83;71.87;101044.97;5002590;28;20105;-83
2021/07/12 06:23:55;;;;;;;8.02;6.15;;;;;;;19.92;71.96;101048.63;5007685;28;20185;-83
2021/07/12 06:26:20;;;;;;;8.95;6.47;;;;;;;19.99;71.25;101050.50;4991814;28;20026;-84
2021/07/12 06:28:46;;;;;;;10.10;6.85;;;;;;;20.03;70.71;101052.31;4991228;28;20037;-84
2021/07/12 06:31:11;;;;;;;8.07;5.95;;;;;;;20.09;69.92;101047.19;4970357;28;20025;-81
2021/07/12 06:33:37;;;;;;;7.80;7.00;;;;;;;20.11;70.14;101055.94;4993108;28;20018;-83
2021/07/12 06:36:02;;;;;;;9.15;6.40;;;;;;;20.14;70.45;101045.53;5008381;28;20097;-83
2021/07/12 06:38:31;;;;;;;8.88;6.10;;;;;;;20.18;70.38;101036.00;5015580;28;20023;-81
2021/07/12 06:40:57;;;;;;;9.52;6.63;;;;;;;20.27;69.17;101041.38;4976205;28;20081;-81
2021/07/12 06:43:23;;;;;;;10.00;6.82;;;;;;;20.37;68.99;101045.00;4992923;28;20045;-85
2021/07/12 06:45:49;;;;;;;9.02;6.32;;;;;;;20.47;69.27;101053.88;4991845;28;20510;-85
2021/07/12 06:48:15;;;;;;;10.57;7.47;;;;;;;20.51;69.58;101049.56;4991702;28;20026;-83
2021/07/12 06:50:40;;;;;;;10.32;6.43;;;;;;;20.58;69.01;101046.16;4992022;28;20049;-84
2021/07/12 06:53:06;;;;;;;8.43;6.43;;;;;;;20.63;68.80;101054.97;4991736;28;20022;-81
2021/07/12 06:55:31;;;;;;;11.18;6.82;;;;;;;20.67;68.92;101046.28;5008049;28;20092;-82
2021/07/12 06:57:57;;;;;;;15.88;6.93;;;;;;;20.77;68.40;101051.69;5008084;28;20450;-82
2021/07/12 07:00:24;;;;;;;11.70;7.28;;;;;;;20.79;67.36;101050.84;4991522;28;20030;-83
2021/07/12 07:02:49;;;;;;;10.43;6.75;;;;;;;20.80;67.74;101042.16;5007639;28;20023;-82
2021/07/12 07:05:15;;;;;;;10.30;6.40;;;;;;;20.89;66.84;101040.50;4975268;28;20033;-83
2021/07/12 07:07:40;;;;;;;10.70;6.85;;;;;;;20.94;67.06;101034.50;5008248;28;20031;-84
2021/07/12 07:10:07;;;;;;;8.95;6.70;;;;;;;21.04;67.10;101039.84;4975718;28;20026;-81
2021/07/12 07:12:33;;;;;;;15.57;7.00;;;;;;;21.02;68.92;101032.84;4986478;28;20029;-82
2021/07/12 07:14:59;;;;;;;7.53;6.60;;;;;;;21.14;67.55;101026.00;5008420;28;20475;-82
2021/07/12 07:17:25;;;;;;;8.95;6.47;;;;;;;21.25;67.41;101026.97;5008205;28;20050;-84
2021/07/12 07:19:51;;;;;;;15.40;7.45;;;;;;;21.20;67.69;101020.81;4993018;28;20447;-85
2021/07/12 07:22:17;;;;;;;8.13;6.65;;;;;;;21.31;66.87;101019.19;5008455;28;20073;-84
2021/07/12 07:24:43;;;;;;;7.00;6.05;;;;;;;21.33;68.88;101015.72;4991628;28;20043;-83
2021/07/12 07:27:09;;;;;;;10.52;6.70;;;;;;;21.38;68.63;101016.63;4989111;28;20022;-84
2021/07/12 07:29:35;;;;;;;8.32;6.45;;;;;;;21.41;69.67;101016.66;5008100;28;20038;-84
2021/07/12 07:32:02;;;;;;;8.23;6.03;;;;;;;21.53;68.10;101014.16;4991724;28;20022;-86
2021/07/12 07:34:28;;;;;;;11.15;6.45;;;;;;;21.56;68.09;101014.19;4992737;28;20515;-85
2021/07/12 07:36:56;;;;;;;9.50;6.43;;;;;;;21.75;66.75;101003.94;5008121;28;20026;-83
2021/07/12 07:39:22;;;;;;;7.60;5.90;;;;;;;21.91;65.37;101001.44;4992204;28;20049;-84
2021/07/12 07:41:48;;;;;;;10.88;6.60;;;;;;;21.93;65.32;101007.59;4978716;28;20033;-85
2021/07/12 07:44:15;;;;;;;8.73;6.50;;;;;;;21.96;63.89;101002.34;4995805;28;20030;-87
2021/07/12 07:46:40;;;;;;;8.85;6.30;;;;;;;21.96;66.51;100997.13;5011978;28;20030;-84
2021/07/12 07:49:07;;;;;;;7.43;6.47;;;;;;;21.99;67.43;100989.28;4997147;28;20026;-87
2021/07/12 07:51:35;;;;;;;6.95;6.25;;;;;;;22.06;66.69;100988.44;4996126;28;20101;-88
2021/07/12 07:54:00;;;;;;;9.02;6.65;;;;;;;22.27;65.98;100992.06;4997335;28;20032;-87
2021/07/12 07:56:26;;;;;;;6.72;5.97;;;;;;;22.26;66.78;100982.44;5012769;28;20030;-88
2021/07/12 07:58:51;;;;;;;6.40;5.53;;;;;;;22.45;64.66;100981.72;4997784;28;20026;-84
2021/07/12 08:01:19;;;;;;;8.50;6.13;;;;;;;22.45;65.73;100992.22;4997349;28;20026;-88
2021/07/12 08:03:45;;;;;;;10.60;5.82;;;;;;;22.52;64.69;100984.38;4997227;28;20026;-85
2021/07/12 08:06:10;;;;;;;9.73;6.57;;;;;;;22.55;64.45;100981.75;5012100;28;20041;-85
2021/07/12 08:08:36;;;;;;;10.85;5.75;;;;;;;22.59;66.32;100988.78;5011897;28;20080;-85
2021/07/12 08:11:01;;;;;;;7.43;5.20;;;;;;;22.67;66.17;100987.06;5011844;28;20128;-85
2021/07/12 08:13:27;;;;;;;7.13;5.63;;;;;;;22.80;64.44;100992.38;5011730;28;20026;-84
2021/07/12 08:15:53;;;;;;;12.52;5.72;;;;;;;22.79;64.59;100985.38;5011811;28;20023;-85
2021/07/12 08:18:18;;;;;;;8.13;6.00;;;;;;;22.79;65.34;100985.38;5011848;28;20098;-85
2021/07/12 08:20:45;;;;;;;10.35;6.35;;;;;;;22.91;65.34;100985.44;4996422;28;20037;-84
2021/07/12 08:23:11;;;;;;;9.60;5.43;;;;;;;22.86;64.84;100976.66;5014176;28;20108;-84
2021/07/12 08:25:37;;;;;;;7.88;5.90;;;;;;;23.01;63.67;100992.47;5015995;28;20025;-84
2021/07/12 08:28:04;;;;;;;7.80;5.57;;;;;;;23.19;62.74;100990.78;5014947;28;20233;-86
2021/07/12 08:30:29;;;;;;;7.07;5.25;;;;;;;23.26;61.86;100997.81;5015903;28;20529;-85
2021/07/12 08:32:55;;;;;;;8.60;5.80;;;;;;;23.32;61.72;100992.59;5014649;28;20030;-85
2021/07/12 08:35:20;;;;;;;7.82;5.93;;;;;;;23.42;63.93;100997.84;5016100;28;20034;-85
2021/07/12 08:37:50;;;;;;;8.98;5.10;;;;;;;23.63;62.01;100995.25;5014758;28;20022;-85
2021/07/12 08:40:17;;;;;;;10.93;5.53;;;;;;;23.56;63.10;100988.22;5015956;28;20025;-85
2021/07/12 08:42:43;;;;;;;8.35;6.03;;;;;;;23.62;61.61;100985.59;5031118;28;20037;-86
2021/07/12 08:45:08;;;;;;;6.57;5.20;;;;;;;23.75;62.28;100982.97;5015573;28;20026;-86
2021/07/12 08:47:35;;;;;;;7.38;5.22;;;;;;;23.86;60.24;100982.97;5014545;28;20029;-84
2021/07/12 08:50:04;;;;;;;7.88;5.47;;;;;;;23.89;59.56;100983.88;5014709;28;20036;-89
2021/07/12 08:52:30;;;;;;;6.93;5.32;;;;;;;24.00;58.93;100980.38;5012926;28;20050;-87
2021/07/12 08:54:55;;;;;;;7.72;5.32;;;;;;;23.97;60.02;100977.72;5013478;28;20459;-87
2021/07/12 08:57:21;;;;;;;5.50;5.00;;;;;;;23.99;62.40;100973.34;5013461;28;20101;-86
2021/07/12 08:59:47;;;;;;;8.88;5.30;;;;;;;24.13;60.34;100976.84;5020997;28;20077;-88
2021/07/12 09:02:18;;;;;;;7.18;4.93;;;;;;;24.17;60.55;100978.59;5013015;28;20033;-87
2021/07/12 09:04:45;;;;;;;6.10;4.72;;;;;;;24.27;59.29;100963.66;4994547;28;20018;-89
2021/07/12 09:07:27;;;;;;;5.93;5.32;;;;;;;24.47;60.36;100966.22;4998125;28;20022;-86
2021/07/12 09:10:00;;;;;;;5.50;4.85;;;;;;;24.50;58.39;100966.22;4998630;28;20037;-86
2021/07/12 09:12:45;;;;;;;6.97;5.18;;;;;;;24.67;57.60;100962.63;5014438;28;20037;-88
2021/07/12 09:15:14;;;;;;;6.63;4.68;;;;;;;24.77;58.36;100951.22;5015203;28;20030;-88
2021/07/12 09:18:03;;;;;;;7.80;5.15;;;;;;;24.99;56.27;100963.41;5015263;28;20029;-90
2021/07/12 09:20:32;;;;;;;5.78;4.15;;;;;;;24.99;57.82;100966.03;5015258;28;20037;-86
2021/07/12 09:22:58;;;;;;;15.43;6.53;;;;;;;25.18;56.04;100964.19;5014385;28;20356;-86
2021/07/12 09:25:30;;;;;;;5.88;4.43;;;;;;;25.45;53.22;100960.53;5015705;28;20100;-88
2021/07/12 09:27:57;;;;;;;5.70;4.60;;;;;;;25.49;54.39;100958.72;4998873;28;20220;-93
2021/07/12 09:30:23;;;;;;;6.10;4.53;;;;;;;25.78;54.67;100949.69;5014310;28;20557;-86
2021/07/12 09:32:52;;;;;;;7.43;4.40;;;;;;;26.01;52.70;100951.25;4996095;28;20018;-90
2021/07/12 09:35:20;;;;;;;5.03;4.53;;;;;;;26.30;51.94;100947.44;4995550;28;20018;-85
2021/07/12 09:37:59;;;;;;;5.95;4.05;;;;;;;26.58;48.11;100949.75;4995970;28;20014;-88
2021/07/12 09:40:28;;;;;;;7.30;4.32;;;;;;;26.70;46.81;100952.22;5006506;28;20529;-93
2021/07/12 09:43:01;;;;;;;;;;;;;;;27.02;47.55;100948.28;5014245;28;20025;-86
2021/07/12 09:45:28;;;;;;;5.05;4.00;;;;;;;27.12;47.14;100946.41;4992432;28;19913;-86
2021/07/12 09:47:55;;;;;;;9.25;4.53;;;;;;;27.19;46.35;100942.75;4997065;28;20022;-88
2021/07/12 09:50:22;;;;;;;4.60;4.18;;;;;;;27.15;47.48;100932.28;5014032;28;20025;-72
2021/07/12 09:52:48;;;;;;;6.22;4.30;;;;;;;26.98;46.79;100930.72;5018405;28;20022;-72
2021/07/12 09:55:41;;;;;;;8.07;4.30;;;;;;;26.41;50.03;100932.34;5012502;28;20024;-72
2021/07/12 09:58:09;;;;;;;4.63;4.22;;;;;;;26.03;49.84;100928.34;5010954;28;20026;-72
2021/07/12 10:00:36;;;;;;;6.07;4.07;;;;;;;25.74;49.09;100933.03;5013909;28;20033;-71
2021/07/12 10:03:02;;;;;;;7.10;4.55;;;;;;;25.71;50.80;100927.78;5012270;28;20030;-72
2021/07/12 10:05:28;;;;;;;4.60;4.03;;;;;;;25.99;50.09;100931.91;5012051;28;20438;-72
2021/07/12 10:07:55;;;;;;;4.43;3.78;;;;;;;25.82;49.98;100925.00;5028650;28;20022;-72
2021/07/12 10:10:20;;;;;;;6.53;4.18;;;;;;;25.66;51.10;100924.31;5007101;28;20530;-71
2021/07/12 10:12:45;;;;;;;4.07;3.67;;;;;;;25.73;49.16;100918.09;4986471;28;20125;-72
2021/07/12 10:15:13;;;;;;;11.52;4.25;;;;;;;25.63;49.74;100914.66;5004727;28;20029;-71
2021/07/12 10:17:43;;;;;;;4.47;3.47;;;;;;;25.56;49.65;100912.94;5010205;28;20116;-71
2021/07/12 10:20:09;;;;;;;6.05;3.90;;;;;;;25.55;51.31;100905.94;4999065;28;20375;-71
2021/07/12 10:22:36;;;;;;;5.88;3.50;;;;;;;25.90;48.56;100907.34;5027559;28;20087;-72
2021/07/12 10:25:12;;;;;;;5.35;4.00;;;;;;;25.74;47.94;100906.66;5021662;28;20046;-71
2021/07/12 10:27:55;;;;;;;4.22;3.80;;;;;;;25.50;48.25;100907.72;5018472;28;20034;-71
2021/07/12 10:30:31;;;;;;;6.25;4.03;;;;;;;25.37;49.09;100897.25;5015611;28;20119;-71
2021/07/12 10:33:08;;;;;;;6.68;4.28;;;;;;;25.30;49.60;100895.56;5006095;28;20033;-71
2021/07/12 10:35:46;;;;;;;6.88;3.80;;;;;;;25.26;48.42;100893.84;4996404;28;20105;-71
2021/07/12 10:38:14;;;;;;;4.75;3.58;;;;;;;25.09;49.99;100889.56;5029017;28;20032;-71
2021/07/12 10:40:57;;;;;;;4.15;3.42;;;;;;;25.22;50.11;100886.84;4988781;28;20033;-71
2021/07/12 10:43:42;;;;;;;10.38;3.63;;;;;;;25.59;49.54;100885.69;5002811;28;20034;-71
2021/07/12 10:46:27;;;;;;;5.50;4.13;;;;;;;26.10;48.93;100887.81;5028686;28;20139;-72
2021/07/12 10:49:05;;;;;;;6.95;3.67;;;;;;;26.31;48.60;100880.53;5000509;28;20076;-71
2021/07/12 10:51:34;;;;;;;6.97;4.00;;;;;;;26.28;47.93;100875.31;5008998;28;20029;-72
2021/07/12 10:54:04;;;;;;;3.60;3.20;;;;;;;26.38;47.13;100872.50;4998760;28;20076;-72
2021/07/12 10:56:54;;;;;;;6.07;3.63;;;;;;;26.64;46.03;100878.34;5010048;28;20030;-71
2021/07/12 10:59:25;;;;;;;8.88;3.42;;;;;;;26.69;44.82;100882.69;5014467;28;20022;-71
2021/07/12 11:01:50;;;;;;;4.55;3.88;;;;;;;26.86;44.78;100872.78;5028985;28;20029;-71
2021/07/12 11:04:38;;;;;;;3.83;3.47;;;;;;;26.69;45.81;100871.22;5016158;28;20086;-71
2021/07/12 11:07:07;;;;;;;3.97;2.85;;;;;;;26.52;46.53;100880.25;5005116;28;20049;-72
2021/07/12 11:10:03;;;;;;;9.73;3.10;;;;;;;26.43;46.31;100875.09;4997788;28;20395;-71
2021/07/12 11:12:33;;;;;;;4.03;2.75;;;;;;;26.22;46.66;100869.22;4986152;28;20096;-71
2021/07/12 11:15:34;;;;;;;3.63;3.28;;;;;;;25.90;47.26;100859.84;5011475;28;20076;-71
2021/07/12 11:18:04;;;;;;;3.83;3.42;;;;;;;25.77;47.67;100863.50;4948783;29;20416;-71
2021/07/12 11:20:43;;;;;;;5.40;3.95;;;;;;;25.67;49.24;100866.25;5001515;28;20037;-71
2021/07/12 11:24:07;;;;;;;5.32;4.07;;;;;;;25.64;50.41;100863.66;5004022;28;20033;-71
2021/07/12 11:26:32;;;;;;;4.93;3.50;;;;;;;25.66;52.02;100861.00;4938324;29;20413;-71
2021/07/12 11:29:21;;;;;;;6.93;3.65;;;;;;;25.73;49.71;100856.53;4943183;29;20039;-72
2021/07/12 11:31:55;;;;;;;6.75;3.95;;;;;;;25.56;50.21;100854.94;4988556;28;20081;-71